sensor_id;sensor_type;location;lat;lon;timestamp;P1;durP1;ratioP1;P2;durP2;ratioP2
24147;SDS011;12309;51.450;-2.624;2022-09-06T00:01:08;10.80;;;4.38;;
24147;SDS011;12309;51.450;-2.624;2022-09-06T00:03:35;6.40;;;3.03;;
24147;SDS011;12309;51.450;-2.624;2022-09-06T00:06:05;4.93;;;2.83;;
24147;SDS011;12309;51.450;-2.624;2022-09-06T00:08:32;6.57;;;3.20;;
24147;SDS011;12309;51.450;-2.624;2022-09-06T00:10:57;7.45;;;2.80;;
24147;SDS011;12309;51.450;-2.624;2022-09-06T00:13:23;6.32;;;2.75;;
24147;SDS011;12309;51.450;-2.624;2022-09-06T00:15:49;8.43;;;3.13;;
24147;SDS011;12309;51.450;-2.624;2022-09-06T00:18:14;7.22;;;3.00;;
24147;SDS011;12309;51.450;-2.624;2022-09-06T00:20:40;7.50;;;2.88;;
24147;SDS011;12309;51.450;-2.624;2022-09-06T00:23:06;8.18;;;2.92;;
24147;SDS011;12309;51.450;-2.624;2022-09-06T00:25:32;5.63;;;3.15;;
24147;SDS011;12309;51.450;-2.624;2022-09-06T00:27:59;11.43;;;2.90;;
24147;SDS011;12309;51.450;-2.624;2022-09-06T00:30:27;7.32;;;3.05;;
24147;SDS011;12309;51.450;-2.624;2022-09-06T00:32:54;11.95;;;3.95;;
24147;SDS011;12309;51.450;-2.624;2022-09-06T00:35:20;7.68;;;2.92;;
24147;SDS011;12309;51.450;-2.624;2022-09-06T00:37:48;9.95;;;3.30;;
24147;SDS011;12309;51.450;-2.624;2022-09-06T00:40:15;8.40;;;2.80;;
24147;SDS011;12309;51.450;-2.624;2022-09-06T00:42:41;11.38;;;4.05;;
24147;SDS011;12309;51.450;-2.624;2022-09-06T00:45:07;8.73;;;3.15;;
24147;SDS011;12309;51.450;-2.624;2022-09-06T00:47:34;9.95;;;3.20;;
24147;SDS011;12309;51.450;-2.624;2022-09-06T00:50:02;8.93;;;3.40;;
24147;SDS011;12309;51.450;-2.624;2022-09-06T00:52:29;8.60;;;3.40;;
24147;SDS011;12309;51.450;-2.624;2022-09-06T00:54:56;8.50;;;3.35;;
24147;SDS011;12309;51.450;-2.624;2022-09-06T00:57:22;9.90;;;3.60;;
24147;SDS011;12309;51.450;-2.624;2022-09-06T00:59:51;8.27;;;2.97;;
24147;SDS011;12309;51.450;-2.624;2022-09-06T01:02:18;10.85;;;3.42;;
24147;SDS011;12309;51.450;-2.624;2022-09-06T01:04:44;11.32;;;3.25;;
24147;SDS011;12309;51.450;-2.624;2022-09-06T01:18:00;13.30;;;3.85;;
24147;SDS011;12309;51.450;-2.624;2022-09-06T01:29:58;10.93;;;3.65;;
24147;SDS011;12309;51.450;-2.624;2022-09-06T01:34:56;6.35;;;3.35;;
24147;SDS011;12309;51.450;-2.624;2022-09-06T01:37:43;7.82;;;3.38;;
24147;SDS011;12309;51.450;-2.624;2022-09-06T01:40:09;9.40;;;3.25;;
24147;SDS011;12309;51.450;-2.624;2022-09-06T01:42:35;15.05;;;3.83;;
24147;SDS011;12309;51.450;-2.624;2022-09-06T01:45:04;13.05;;;3.63;;
24147;SDS011;12309;51.450;-2.624;2022-09-06T01:47:49;8.05;;;3.58;;
24147;SDS011;12309;51.450;-2.624;2022-09-06T01:55:57;15.43;;;5.60;;
24147;SDS011;12309;51.450;-2.624;2022-09-06T02:06:21;15.38;;;4.10;;
24147;SDS011;12309;51.450;-2.624;2022-09-06T02:08:52;16.45;;;3.92;;
24147;SDS011;12309;51.450;-2.624;2022-09-06T02:11:25;8.93;;;3.88;;
24147;SDS011;12309;51.450;-2.624;2022-09-06T02:13:54;11.50;;;4.03;;
24147;SDS011;12309;51.450;-2.624;2022-09-06T02:16:25;11.43;;;4.38;;
24147;SDS011;12309;51.450;-2.624;2022-09-06T02:18:56;12.15;;;4.93;;
24147;SDS011;12309;51.450;-2.624;2022-09-06T02:21:31;7.72;;;4.25;;
24147;SDS011;12309;51.450;-2.624;2022-09-06T02:23:59;18.70;;;4.55;;
24147;SDS011;12309;51.450;-2.624;2022-09-06T02:26:29;12.43;;;4.18;;
24147;SDS011;12309;51.450;-2.624;2022-09-06T02:28:59;11.68;;;4.35;;
24147;SDS011;12309;51.450;-2.624;2022-09-06T02:31:29;11.75;;;4.53;;
24147;SDS011;12309;51.450;-2.624;2022-09-06T02:33:57;16.42;;;5.13;;
24147;SDS011;12309;51.450;-2.624;2022-09-06T02:36:24;11.13;;;4.60;;
24147;SDS011;12309;51.450;-2.624;2022-09-06T02:38:50;7.95;;;4.00;;
24147;SDS011;12309;51.450;-2.624;2022-09-06T02:41:18;12.88;;;4.80;;
24147;SDS011;12309;51.450;-2.624;2022-09-06T02:43:47;11.07;;;4.43;;
24147;SDS011;12309;51.450;-2.624;2022-09-06T02:46:13;15.13;;;4.85;;
24147;SDS011;12309;51.450;-2.624;2022-09-06T02:48:38;12.98;;;5.15;;
24147;SDS011;12309;51.450;-2.624;2022-09-06T02:51:04;15.32;;;4.70;;
24147;SDS011;12309;51.450;-2.624;2022-09-06T02:53:31;10.00;;;5.00;;
24147;SDS011;12309;51.450;-2.624;2022-09-06T02:55:57;10.82;;;4.95;;
24147;SDS011;12309;51.450;-2.624;2022-09-06T02:58:23;11.13;;;5.95;;
24147;SDS011;12309;51.450;-2.624;2022-09-06T03:00:50;15.02;;;5.03;;
24147;SDS011;12309;51.450;-2.624;2022-09-06T03:03:16;13.30;;;4.85;;
24147;SDS011;12309;51.450;-2.624;2022-09-06T03:05:46;16.08;;;4.68;;
24147;SDS011;12309;51.450;-2.624;2022-09-06T03:08:13;9.30;;;4.45;;
24147;SDS011;12309;51.450;-2.624;2022-09-06T03:10:40;16.05;;;5.30;;
24147;SDS011;12309;51.450;-2.624;2022-09-06T03:13:06;12.15;;;4.95;;
24147;SDS011;12309;51.450;-2.624;2022-09-06T03:15:31;16.10;;;5.38;;
24147;SDS011;12309;51.450;-2.624;2022-09-06T03:17:57;18.13;;;5.43;;
24147;SDS011;12309;51.450;-2.624;2022-09-06T03:20:24;11.57;;;4.63;;
24147;SDS011;12309;51.450;-2.624;2022-09-06T03:22:49;14.68;;;4.95;;
24147;SDS011;12309;51.450;-2.624;2022-09-06T03:25:15;15.85;;;5.05;;
24147;SDS011;12309;51.450;-2.624;2022-09-06T03:27:42;13.95;;;5.22;;
24147;SDS011;12309;51.450;-2.624;2022-09-06T03:30:08;16.23;;;5.50;;
24147;SDS011;12309;51.450;-2.624;2022-09-06T03:32:34;23.80;;;5.22;;
24147;SDS011;12309;51.450;-2.624;2022-09-06T03:35:00;14.65;;;4.82;;
24147;SDS011;12309;51.450;-2.624;2022-09-06T03:37:26;15.90;;;5.53;;
24147;SDS011;12309;51.450;-2.624;2022-09-06T03:39:52;15.35;;;5.13;;
24147;SDS011;12309;51.450;-2.624;2022-09-06T03:42:18;16.00;;;4.80;;
24147;SDS011;12309;51.450;-2.624;2022-09-06T03:44:43;14.52;;;5.47;;
24147;SDS011;12309;51.450;-2.624;2022-09-06T03:47:09;17.90;;;4.85;;
24147;SDS011;12309;51.450;-2.624;2022-09-06T03:49:35;12.65;;;4.75;;
24147;SDS011;12309;51.450;-2.624;2022-09-06T03:52:01;12.25;;;4.55;;
24147;SDS011;12309;51.450;-2.624;2022-09-06T03:54:26;12.82;;;4.70;;
24147;SDS011;12309;51.450;-2.624;2022-09-06T03:56:54;13.43;;;4.80;;
24147;SDS011;12309;51.450;-2.624;2022-09-06T03:59:19;10.00;;;4.90;;
24147;SDS011;12309;51.450;-2.624;2022-09-06T04:01:45;12.88;;;5.53;;
24147;SDS011;12309;51.450;-2.624;2022-09-06T04:04:11;15.98;;;4.93;;
24147;SDS011;12309;51.450;-2.624;2022-09-06T04:06:36;14.07;;;5.38;;
24147;SDS011;12309;51.450;-2.624;2022-09-06T04:09:02;10.15;;;5.15;;
24147;SDS011;12309;51.450;-2.624;2022-09-06T04:11:28;16.08;;;5.70;;
24147;SDS011;12309;51.450;-2.624;2022-09-06T04:13:53;17.70;;;5.88;;
24147;SDS011;12309;51.450;-2.624;2022-09-06T04:16:19;17.30;;;5.82;;
24147;SDS011;12309;51.450;-2.624;2022-09-06T04:18:45;15.50;;;5.70;;
24147;SDS011;12309;51.450;-2.624;2022-09-06T04:21:10;15.25;;;5.63;;
24147;SDS011;12309;51.450;-2.624;2022-09-06T04:23:36;23.75;;;5.75;;
24147;SDS011;12309;51.450;-2.624;2022-09-06T04:26:02;13.48;;;5.50;;
24147;SDS011;12309;51.450;-2.624;2022-09-06T04:28:28;15.48;;;6.20;;
24147;SDS011;12309;51.450;-2.624;2022-09-06T04:30:58;16.85;;;5.75;;
24147;SDS011;12309;51.450;-2.624;2022-09-06T04:33:25;14.32;;;6.22;;
24147;SDS011;12309;51.450;-2.624;2022-09-06T04:35:52;11.65;;;5.80;;
24147;SDS011;12309;51.450;-2.624;2022-09-06T04:38:20;13.68;;;6.15;;
24147;SDS011;12309;51.450;-2.624;2022-09-06T04:40:46;16.45;;;6.15;;
24147;SDS011;12309;51.450;-2.624;2022-09-06T04:43:12;15.88;;;6.60;;
24147;SDS011;12309;51.450;-2.624;2022-09-06T04:45:38;13.77;;;6.40;;
24147;SDS011;12309;51.450;-2.624;2022-09-06T04:48:04;19.80;;;6.45;;
24147;SDS011;12309;51.450;-2.624;2022-09-06T04:50:30;17.48;;;6.70;;
24147;SDS011;12309;51.450;-2.624;2022-09-06T04:52:56;16.30;;;6.25;;
24147;SDS011;12309;51.450;-2.624;2022-09-06T04:55:21;14.60;;;6.00;;
24147;SDS011;12309;51.450;-2.624;2022-09-06T04:57:47;21.45;;;6.72;;
24147;SDS011;12309;51.450;-2.624;2022-09-06T05:00:12;14.82;;;6.57;;
24147;SDS011;12309;51.450;-2.624;2022-09-06T05:02:38;17.67;;;5.97;;
24147;SDS011;12309;51.450;-2.624;2022-09-06T05:05:04;18.48;;;5.95;;
24147;SDS011;12309;51.450;-2.624;2022-09-06T05:07:30;19.02;;;6.47;;
24147;SDS011;12309;51.450;-2.624;2022-09-06T05:09:55;19.75;;;7.43;;
24147;SDS011;12309;51.450;-2.624;2022-09-06T05:12:21;16.55;;;7.18;;
24147;SDS011;12309;51.450;-2.624;2022-09-06T05:14:47;11.27;;;6.50;;
24147;SDS011;12309;51.450;-2.624;2022-09-06T05:17:12;17.23;;;6.95;;
24147;SDS011;12309;51.450;-2.624;2022-09-06T05:19:39;19.35;;;6.93;;
24147;SDS011;12309;51.450;-2.624;2022-09-06T05:22:04;14.57;;;6.75;;
24147;SDS011;12309;51.450;-2.624;2022-09-06T05:24:30;15.85;;;6.78;;
24147;SDS011;12309;51.450;-2.624;2022-09-06T05:26:56;17.23;;;6.68;;
24147;SDS011;12309;51.450;-2.624;2022-09-06T05:29:22;18.58;;;7.45;;
24147;SDS011;12309;51.450;-2.624;2022-09-06T05:31:48;18.52;;;7.72;;
24147;SDS011;12309;51.450;-2.624;2022-09-06T05:34:14;18.35;;;8.07;;
24147;SDS011;12309;51.450;-2.624;2022-09-06T05:36:39;20.48;;;8.35;;
24147;SDS011;12309;51.450;-2.624;2022-09-06T05:39:06;23.45;;;7.80;;
24147;SDS011;12309;51.450;-2.624;2022-09-06T05:41:31;16.23;;;8.85;;
24147;SDS011;12309;51.450;-2.624;2022-09-06T05:43:57;20.10;;;8.90;;
24147;SDS011;12309;51.450;-2.624;2022-09-06T05:46:24;16.65;;;8.70;;
24147;SDS011;12309;51.450;-2.624;2022-09-06T05:48:54;18.27;;;9.10;;
24147;SDS011;12309;51.450;-2.624;2022-09-06T05:51:22;20.13;;;8.55;;
24147;SDS011;12309;51.450;-2.624;2022-09-06T05:53:48;22.33;;;8.38;;
24147;SDS011;12309;51.450;-2.624;2022-09-06T05:56:14;18.38;;;8.00;;
24147;SDS011;12309;51.450;-2.624;2022-09-06T05:58:40;17.77;;;7.82;;
24147;SDS011;12309;51.450;-2.624;2022-09-06T06:03:41;16.05;;;7.47;;
24147;SDS011;12309;51.450;-2.624;2022-09-06T06:06:07;24.00;;;7.85;;
24147;SDS011;12309;51.450;-2.624;2022-09-06T06:08:33;22.25;;;7.70;;
24147;SDS011;12309;51.450;-2.624;2022-09-06T06:11:00;14.45;;;7.03;;
24147;SDS011;12309;51.450;-2.624;2022-09-06T06:13:26;14.80;;;7.80;;
24147;SDS011;12309;51.450;-2.624;2022-09-06T06:15:54;15.00;;;7.55;;
24147;SDS011;12309;51.450;-2.624;2022-09-06T06:18:20;18.00;;;7.75;;
24147;SDS011;12309;51.450;-2.624;2022-09-06T06:20:46;19.80;;;8.35;;
24147;SDS011;12309;51.450;-2.624;2022-09-06T06:23:13;14.38;;;8.10;;
24147;SDS011;12309;51.450;-2.624;2022-09-06T06:25:39;25.92;;;8.05;;
24147;SDS011;12309;51.450;-2.624;2022-09-06T06:28:05;19.35;;;7.35;;
24147;SDS011;12309;51.450;-2.624;2022-09-06T06:30:30;13.43;;;7.18;;
24147;SDS011;12309;51.450;-2.624;2022-09-06T06:32:56;21.58;;;7.85;;
24147;SDS011;12309;51.450;-2.624;2022-09-06T06:35:22;23.85;;;7.47;;
24147;SDS011;12309;51.450;-2.624;2022-09-06T06:37:49;17.77;;;7.72;;
24147;SDS011;12309;51.450;-2.624;2022-09-06T06:40:15;14.93;;;6.97;;
24147;SDS011;12309;51.450;-2.624;2022-09-06T06:42:41;23.27;;;7.32;;
24147;SDS011;12309;51.450;-2.624;2022-09-06T06:45:06;17.77;;;7.75;;
24147;SDS011;12309;51.450;-2.624;2022-09-06T06:47:32;14.90;;;7.45;;
24147;SDS011;12309;51.450;-2.624;2022-09-06T06:49:58;13.20;;;7.03;;
24147;SDS011;12309;51.450;-2.624;2022-09-06T06:52:23;13.40;;;7.03;;
24147;SDS011;12309;51.450;-2.624;2022-09-06T06:54:49;17.83;;;7.53;;
24147;SDS011;12309;51.450;-2.624;2022-09-06T06:57:15;17.27;;;7.15;;
24147;SDS011;12309;51.450;-2.624;2022-09-06T06:59:41;13.15;;;6.35;;
24147;SDS011;12309;51.450;-2.624;2022-09-06T07:02:06;23.50;;;6.97;;
24147;SDS011;12309;51.450;-2.624;2022-09-06T07:04:32;24.35;;;6.80;;
24147;SDS011;12309;51.450;-2.624;2022-09-06T07:06:58;17.25;;;6.57;;
24147;SDS011;12309;51.450;-2.624;2022-09-06T07:09:23;18.08;;;6.63;;
24147;SDS011;12309;51.450;-2.624;2022-09-06T07:11:50;14.32;;;6.70;;
24147;SDS011;12309;51.450;-2.624;2022-09-06T07:14:16;17.25;;;6.43;;
24147;SDS011;12309;51.450;-2.624;2022-09-06T07:16:43;18.15;;;6.22;;
24147;SDS011;12309;51.450;-2.624;2022-09-06T07:19:09;14.00;;;5.60;;
24147;SDS011;12309;51.450;-2.624;2022-09-06T07:21:34;20.17;;;5.32;;
24147;SDS011;12309;51.450;-2.624;2022-09-06T07:24:00;21.20;;;5.07;;
24147;SDS011;12309;51.450;-2.624;2022-09-06T07:26:27;18.48;;;5.20;;
24147;SDS011;12309;51.450;-2.624;2022-09-06T07:28:58;16.67;;;4.93;;
24147;SDS011;12309;51.450;-2.624;2022-09-06T07:31:25;15.93;;;4.63;;
24147;SDS011;12309;51.450;-2.624;2022-09-06T07:33:51;20.83;;;4.45;;
24147;SDS011;12309;51.450;-2.624;2022-09-06T07:36:17;18.52;;;4.22;;
24147;SDS011;12309;51.450;-2.624;2022-09-06T07:38:46;20.77;;;4.40;;
24147;SDS011;12309;51.450;-2.624;2022-09-06T07:41:13;17.95;;;4.25;;
24147;SDS011;12309;51.450;-2.624;2022-09-06T07:43:39;16.15;;;4.93;;
24147;SDS011;12309;51.450;-2.624;2022-09-06T07:48:36;23.77;;;4.10;;
24147;SDS011;12309;51.450;-2.624;2022-09-06T07:53:37;14.30;;;4.05;;
24147;SDS011;12309;51.450;-2.624;2022-09-06T07:56:05;18.67;;;3.70;;
24147;SDS011;12309;51.450;-2.624;2022-09-06T07:58:33;26.52;;;4.38;;
24147;SDS011;12309;51.450;-2.624;2022-09-06T08:04:00;18.60;;;3.88;;
24147;SDS011;12309;51.450;-2.624;2022-09-06T08:06:35;21.67;;;3.88;;
24147;SDS011;12309;51.450;-2.624;2022-09-06T08:09:02;19.40;;;3.63;;
24147;SDS011;12309;51.450;-2.624;2022-09-06T08:11:31;15.98;;;3.33;;
24147;SDS011;12309;51.450;-2.624;2022-09-06T08:13:58;16.65;;;3.50;;
24147;SDS011;12309;51.450;-2.624;2022-09-06T08:16:25;22.90;;;3.55;;
24147;SDS011;12309;51.450;-2.624;2022-09-06T08:18:53;21.13;;;3.08;;
24147;SDS011;12309;51.450;-2.624;2022-09-06T08:21:22;14.07;;;2.75;;
24147;SDS011;12309;51.450;-2.624;2022-09-06T08:23:51;23.50;;;3.00;;
24147;SDS011;12309;51.450;-2.624;2022-09-06T08:26:21;23.63;;;3.30;;
24147;SDS011;12309;51.450;-2.624;2022-09-06T08:28:54;20.60;;;3.70;;
24147;SDS011;12309;51.450;-2.624;2022-09-06T08:31:21;20.73;;;3.00;;
24147;SDS011;12309;51.450;-2.624;2022-09-06T08:33:47;27.10;;;3.60;;
24147;SDS011;12309;51.450;-2.624;2022-09-06T08:36:13;18.70;;;2.88;;
24147;SDS011;12309;51.450;-2.624;2022-09-06T08:38:39;16.48;;;2.45;;
24147;SDS011;12309;51.450;-2.624;2022-09-06T08:43:54;11.52;;;2.17;;
24147;SDS011;12309;51.450;-2.624;2022-09-06T08:46:21;22.83;;;3.15;;
24147;SDS011;12309;51.450;-2.624;2022-09-06T08:48:57;19.00;;;2.67;;
24147;SDS011;12309;51.450;-2.624;2022-09-06T08:54:17;20.45;;;3.17;;
24147;SDS011;12309;51.450;-2.624;2022-09-06T08:59:18;19.20;;;2.88;;
24147;SDS011;12309;51.450;-2.624;2022-09-06T09:04:19;17.90;;;2.92;;
24147;SDS011;12309;51.450;-2.624;2022-09-06T09:06:49;18.65;;;2.67;;
24147;SDS011;12309;51.450;-2.624;2022-09-06T09:09:19;18.30;;;2.65;;
24147;SDS011;12309;51.450;-2.624;2022-09-06T09:11:46;23.35;;;3.45;;
24147;SDS011;12309;51.450;-2.624;2022-09-06T09:14:15;15.02;;;2.20;;
24147;SDS011;12309;51.450;-2.624;2022-09-06T09:16:52;23.63;;;2.63;;
24147;SDS011;12309;51.450;-2.624;2022-09-06T09:19:20;17.92;;;2.22;;
24147;SDS011;12309;51.450;-2.624;2022-09-06T09:21:46;16.95;;;2.47;;
24147;SDS011;12309;51.450;-2.624;2022-09-06T09:24:12;14.77;;;2.53;;
24147;SDS011;12309;51.450;-2.624;2022-09-06T09:29:17;22.65;;;3.08;;
24147;SDS011;12309;51.450;-2.624;2022-09-06T09:31:51;17.98;;;2.65;;
24147;SDS011;12309;51.450;-2.624;2022-09-06T09:34:28;18.92;;;2.58;;
24147;SDS011;12309;51.450;-2.624;2022-09-06T09:39:48;19.17;;;3.40;;
24147;SDS011;12309;51.450;-2.624;2022-09-06T09:42:27;18.88;;;2.70;;
24147;SDS011;12309;51.450;-2.624;2022-09-06T09:44:56;15.70;;;2.95;;
24147;SDS011;12309;51.450;-2.624;2022-09-06T09:49:49;15.55;;;2.30;;
24147;SDS011;12309;51.450;-2.624;2022-09-06T09:52:14;14.88;;;3.03;;
24147;SDS011;12309;51.450;-2.624;2022-09-06T09:54:51;16.33;;;2.25;;
24147;SDS011;12309;51.450;-2.624;2022-09-06T09:57:20;14.45;;;2.85;;
24147;SDS011;12309;51.450;-2.624;2022-09-06T09:59:49;14.73;;;2.70;;
24147;SDS011;12309;51.450;-2.624;2022-09-06T10:05:24;17.38;;;2.90;;
24147;SDS011;12309;51.450;-2.624;2022-09-06T10:07:52;15.10;;;2.33;;
24147;SDS011;12309;51.450;-2.624;2022-09-06T10:10:26;15.73;;;2.92;;
24147;SDS011;12309;51.450;-2.624;2022-09-06T10:15:37;10.30;;;2.17;;
24147;SDS011;12309;51.450;-2.624;2022-09-06T10:18:04;19.00;;;2.65;;
24147;SDS011;12309;51.450;-2.624;2022-09-06T10:23:20;15.82;;;2.35;;
24147;SDS011;12309;51.450;-2.624;2022-09-06T10:26:04;9.85;;;2.45;;
24147;SDS011;12309;51.450;-2.624;2022-09-06T10:28:37;12.30;;;2.55;;
24147;SDS011;12309;51.450;-2.624;2022-09-06T10:39:47;8.45;;;2.38;;
24147;SDS011;12309;51.450;-2.624;2022-09-06T10:51:11;9.63;;;2.17;;
24147;SDS011;12309;51.450;-2.624;2022-09-06T10:53:56;13.65;;;2.55;;
24147;SDS011;12309;51.450;-2.624;2022-09-06T10:59:19;12.05;;;2.45;;
24147;SDS011;12309;51.450;-2.624;2022-09-06T11:04:51;12.73;;;2.83;;
24147;SDS011;12309;51.450;-2.624;2022-09-06T11:07:27;8.15;;;1.83;;
24147;SDS011;12309;51.450;-2.624;2022-09-06T11:10:03;11.98;;;2.30;;
24147;SDS011;12309;51.450;-2.624;2022-09-06T11:12:34;10.80;;;2.25;;
24147;SDS011;12309;51.450;-2.624;2022-09-06T11:15:05;14.93;;;2.58;;
24147;SDS011;12309;51.450;-2.624;2022-09-06T11:17:41;9.55;;;2.40;;
24147;SDS011;12309;51.450;-2.624;2022-09-06T11:26:27;13.05;;;2.20;;
24147;SDS011;12309;51.450;-2.624;2022-09-06T11:28:42;15.30;;;2.42;;
24147;SDS011;12309;51.450;-2.624;2022-09-06T11:31:12;13.68;;;2.45;;
24147;SDS011;12309;51.450;-2.624;2022-09-06T11:33:46;12.32;;;2.50;;
24147;SDS011;12309;51.450;-2.624;2022-09-06T11:36:56;9.63;;;2.05;;
24147;SDS011;12309;51.450;-2.624;2022-09-06T11:39:25;12.52;;;2.45;;
24147;SDS011;12309;51.450;-2.624;2022-09-06T11:41:59;17.15;;;2.45;;
24147;SDS011;12309;51.450;-2.624;2022-09-06T12:00:40;9.27;;;2.25;;
24147;SDS011;12309;51.450;-2.624;2022-09-06T12:03:07;18.38;;;2.90;;
24147;SDS011;12309;51.450;-2.624;2022-09-06T12:06:12;11.48;;;1.80;;
24147;SDS011;12309;51.450;-2.624;2022-09-06T12:08:38;9.85;;;2.05;;
24147;SDS011;12309;51.450;-2.624;2022-09-06T12:11:27;15.00;;;2.40;;
24147;SDS011;12309;51.450;-2.624;2022-09-06T12:13:57;9.98;;;1.98;;
24147;SDS011;12309;51.450;-2.624;2022-09-06T12:19:44;11.52;;;1.60;;
24147;SDS011;12309;51.450;-2.624;2022-09-06T12:27:59;10.02;;;2.00;;
24147;SDS011;12309;51.450;-2.624;2022-09-06T12:30:31;10.02;;;2.15;;
24147;SDS011;12309;51.450;-2.624;2022-09-06T12:33:51;10.27;;;1.95;;
24147;SDS011;12309;51.450;-2.624;2022-09-06T12:35:51;10.68;;;2.35;;
24147;SDS011;12309;51.450;-2.624;2022-09-06T12:38:21;19.13;;;2.13;;
24147;SDS011;12309;51.450;-2.624;2022-09-06T12:40:49;11.13;;;2.35;;
24147;SDS011;12309;51.450;-2.624;2022-09-06T12:43:19;10.60;;;1.90;;
24147;SDS011;12309;51.450;-2.624;2022-09-06T12:45:46;11.07;;;1.92;;
24147;SDS011;12309;51.450;-2.624;2022-09-06T12:51:07;13.23;;;1.80;;
24147;SDS011;12309;51.450;-2.624;2022-09-06T12:53:48;8.73;;;1.60;;
24147;SDS011;12309;51.450;-2.624;2022-09-06T12:56:25;8.50;;;1.90;;
24147;SDS011;12309;51.450;-2.624;2022-09-06T12:59:08;7.68;;;1.92;;
24147;SDS011;12309;51.450;-2.624;2022-09-06T13:02:01;10.80;;;2.08;;
24147;SDS011;12309;51.450;-2.624;2022-09-06T13:04:39;6.00;;;1.95;;
24147;SDS011;12309;51.450;-2.624;2022-09-06T13:07:08;10.90;;;2.35;;
24147;SDS011;12309;51.450;-2.624;2022-09-06T13:09:38;7.30;;;1.83;;
24147;SDS011;12309;51.450;-2.624;2022-09-06T13:12:08;9.98;;;2.17;;
24147;SDS011;12309;51.450;-2.624;2022-09-06T13:14:41;9.30;;;2.42;;
24147;SDS011;12309;51.450;-2.624;2022-09-06T13:17:07;8.13;;;2.08;;
24147;SDS011;12309;51.450;-2.624;2022-09-06T13:19:46;8.98;;;1.63;;
24147;SDS011;12309;51.450;-2.624;2022-09-06T13:22:35;9.93;;;2.13;;
24147;SDS011;12309;51.450;-2.624;2022-09-06T13:27:46;8.80;;;1.70;;
24147;SDS011;12309;51.450;-2.624;2022-09-06T13:30:32;6.70;;;1.65;;
24147;SDS011;12309;51.450;-2.624;2022-09-06T13:33:23;6.70;;;1.75;;
24147;SDS011;12309;51.450;-2.624;2022-09-06T13:35:51;11.07;;;2.38;;
24147;SDS011;12309;51.450;-2.624;2022-09-06T13:38:38;12.63;;;2.20;;
24147;SDS011;12309;51.450;-2.624;2022-09-06T13:41:53;8.57;;;2.00;;
24147;SDS011;12309;51.450;-2.624;2022-09-06T13:44:05;6.18;;;1.50;;
24147;SDS011;12309;51.450;-2.624;2022-09-06T13:46:42;11.25;;;2.22;;
24147;SDS011;12309;51.450;-2.624;2022-09-06T13:49:08;11.07;;;2.20;;
24147;SDS011;12309;51.450;-2.624;2022-09-06T13:51:34;9.80;;;2.20;;
24147;SDS011;12309;51.450;-2.624;2022-09-06T13:54:05;13.05;;;2.38;;
24147;SDS011;12309;51.450;-2.624;2022-09-06T13:56:33;12.40;;;2.10;;
24147;SDS011;12309;51.450;-2.624;2022-09-06T13:58:59;21.13;;;2.97;;
24147;SDS011;12309;51.450;-2.624;2022-09-06T14:01:28;12.60;;;1.77;;
24147;SDS011;12309;51.450;-2.624;2022-09-06T14:03:54;12.50;;;2.42;;
24147;SDS011;12309;51.450;-2.624;2022-09-06T14:06:19;9.18;;;2.05;;
24147;SDS011;12309;51.450;-2.624;2022-09-06T14:08:46;14.77;;;2.22;;
24147;SDS011;12309;51.450;-2.624;2022-09-06T14:11:11;13.20;;;2.08;;
24147;SDS011;12309;51.450;-2.624;2022-09-06T14:13:40;11.32;;;1.90;;
24147;SDS011;12309;51.450;-2.624;2022-09-06T14:16:05;13.60;;;2.42;;
24147;SDS011;12309;51.450;-2.624;2022-09-06T14:18:31;9.13;;;1.80;;
24147;SDS011;12309;51.450;-2.624;2022-09-06T14:20:57;10.75;;;2.00;;
24147;SDS011;12309;51.450;-2.624;2022-09-06T14:23:23;13.85;;;2.00;;
24147;SDS011;12309;51.450;-2.624;2022-09-06T14:25:56;12.38;;;2.20;;
24147;SDS011;12309;51.450;-2.624;2022-09-06T14:28:23;7.63;;;1.50;;
24147;SDS011;12309;51.450;-2.624;2022-09-06T14:30:49;11.45;;;2.22;;
24147;SDS011;12309;51.450;-2.624;2022-09-06T14:33:16;14.88;;;2.50;;
24147;SDS011;12309;51.450;-2.624;2022-09-06T14:35:42;11.73;;;2.13;;
24147;SDS011;12309;51.450;-2.624;2022-09-06T14:38:08;14.32;;;2.33;;
24147;SDS011;12309;51.450;-2.624;2022-09-06T14:40:34;13.00;;;2.17;;
24147;SDS011;12309;51.450;-2.624;2022-09-06T14:43:01;13.13;;;2.22;;
24147;SDS011;12309;51.450;-2.624;2022-09-06T14:45:28;12.40;;;2.40;;
24147;SDS011;12309;51.450;-2.624;2022-09-06T14:47:53;11.32;;;2.15;;
24147;SDS011;12309;51.450;-2.624;2022-09-06T14:50:20;8.23;;;2.20;;
24147;SDS011;12309;51.450;-2.624;2022-09-06T14:52:46;22.00;;;2.13;;
24147;SDS011;12309;51.450;-2.624;2022-09-06T14:55:12;6.32;;;1.35;;
24147;SDS011;12309;51.450;-2.624;2022-09-06T14:57:38;9.75;;;1.75;;
24147;SDS011;12309;51.450;-2.624;2022-09-06T15:00:04;9.55;;;1.60;;
24147;SDS011;12309;51.450;-2.624;2022-09-06T15:02:32;8.45;;;1.70;;
24147;SDS011;12309;51.450;-2.624;2022-09-06T15:04:59;8.70;;;1.88;;
24147;SDS011;12309;51.450;-2.624;2022-09-06T15:07:26;9.68;;;1.40;;
24147;SDS011;12309;51.450;-2.624;2022-09-06T15:09:52;12.55;;;2.05;;
24147;SDS011;12309;51.450;-2.624;2022-09-06T15:12:17;9.00;;;2.05;;
24147;SDS011;12309;51.450;-2.624;2022-09-06T15:14:44;9.57;;;1.70;;
24147;SDS011;12309;51.450;-2.624;2022-09-06T15:17:10;8.82;;;2.10;;
24147;SDS011;12309;51.450;-2.624;2022-09-06T15:19:35;12.65;;;2.30;;
24147;SDS011;12309;51.450;-2.624;2022-09-06T15:22:02;10.38;;;1.60;;
24147;SDS011;12309;51.450;-2.624;2022-09-06T15:24:29;11.75;;;2.80;;
24147;SDS011;12309;51.450;-2.624;2022-09-06T15:26:55;10.23;;;2.13;;
24147;SDS011;12309;51.450;-2.624;2022-09-06T15:29:21;10.07;;;1.90;;
24147;SDS011;12309;51.450;-2.624;2022-09-06T15:31:48;13.35;;;1.90;;
24147;SDS011;12309;51.450;-2.624;2022-09-06T15:34:21;10.80;;;1.75;;
24147;SDS011;12309;51.450;-2.624;2022-09-06T15:36:48;12.85;;;2.13;;
24147;SDS011;12309;51.450;-2.624;2022-09-06T15:39:15;16.83;;;2.30;;
24147;SDS011;12309;51.450;-2.624;2022-09-06T15:41:41;12.45;;;1.90;;
24147;SDS011;12309;51.450;-2.624;2022-09-06T15:44:08;10.25;;;2.33;;
24147;SDS011;12309;51.450;-2.624;2022-09-06T15:49:24;15.77;;;2.38;;
24147;SDS011;12309;51.450;-2.624;2022-09-06T15:51:52;15.02;;;2.35;;
24147;SDS011;12309;51.450;-2.624;2022-09-06T15:54:18;15.23;;;2.55;;
24147;SDS011;12309;51.450;-2.624;2022-09-06T15:57:05;14.48;;;2.10;;
24147;SDS011;12309;51.450;-2.624;2022-09-06T15:59:31;13.43;;;2.40;;
24147;SDS011;12309;51.450;-2.624;2022-09-06T16:01:57;12.65;;;2.30;;
24147;SDS011;12309;51.450;-2.624;2022-09-06T16:04:22;10.50;;;2.20;;
24147;SDS011;12309;51.450;-2.624;2022-09-06T16:06:48;19.65;;;2.58;;
24147;SDS011;12309;51.450;-2.624;2022-09-06T16:09:14;9.93;;;1.90;;
24147;SDS011;12309;51.450;-2.624;2022-09-06T16:11:41;15.38;;;2.47;;
24147;SDS011;12309;51.450;-2.624;2022-09-06T16:14:09;10.93;;;1.80;;
24147;SDS011;12309;51.450;-2.624;2022-09-06T16:16:37;9.68;;;2.15;;
24147;SDS011;12309;51.450;-2.624;2022-09-06T16:19:04;14.10;;;2.28;;
24147;SDS011;12309;51.450;-2.624;2022-09-06T16:21:31;10.30;;;1.65;;
24147;SDS011;12309;51.450;-2.624;2022-09-06T16:24:01;15.02;;;2.10;;
24147;SDS011;12309;51.450;-2.624;2022-09-06T16:26:30;12.73;;;1.98;;
24147;SDS011;12309;51.450;-2.624;2022-09-06T16:28:57;14.43;;;2.40;;
24147;SDS011;12309;51.450;-2.624;2022-09-06T16:31:24;11.25;;;2.08;;
24147;SDS011;12309;51.450;-2.624;2022-09-06T16:33:51;11.43;;;2.15;;
24147;SDS011;12309;51.450;-2.624;2022-09-06T16:36:18;13.18;;;2.30;;
24147;SDS011;12309;51.450;-2.624;2022-09-06T16:38:44;8.68;;;1.83;;
24147;SDS011;12309;51.450;-2.624;2022-09-06T16:43:57;11.68;;;2.50;;
24147;SDS011;12309;51.450;-2.624;2022-09-06T16:46:23;10.35;;;1.77;;
24147;SDS011;12309;51.450;-2.624;2022-09-06T16:48:54;10.15;;;2.05;;
24147;SDS011;12309;51.450;-2.624;2022-09-06T16:51:21;9.40;;;1.88;;